sensor_id;sensor_type;location;lat;lon;timestamp;temperature;humidity
17571;DHT22;8903;52.220;20.978;2024-01-15T00:00:41;1.70;99.90
17571;DHT22;8903;52.220;20.978;2024-01-15T00:03:07;1.70;99.90
17571;DHT22;8903;52.220;20.978;2024-01-15T00:05:33;1.70;99.90
17571;DHT22;8903;52.220;20.978;2024-01-15T00:07:58;1.60;99.90
17571;DHT22;8903;52.220;20.978;2024-01-15T00:10:24;1.70;99.90
17571;DHT22;8903;52.220;20.978;2024-01-15T00:12:49;1.70;99.90
17571;DHT22;8903;52.220;20.978;2024-01-15T00:15:15;1.70;99.90
17571;DHT22;8903;52.220;20.978;2024-01-15T00:17:41;1.70;99.90
17571;DHT22;8903;52.220;20.978;2024-01-15T00:20:07;1.70;99.90
17571;DHT22;8903;52.220;20.978;2024-01-15T00:22:33;1.70;99.90
17571;DHT22;8903;52.220;20.978;2024-01-15T00:25:01;1.70;99.90
17571;DHT22;8903;52.220;20.978;2024-01-15T00:27:27;1.70;99.90
17571;DHT22;8903;52.220;20.978;2024-01-15T00:29:53;1.70;99.90
17571;DHT22;8903;52.220;20.978;2024-01-15T00:32:20;1.70;99.90
17571;DHT22;8903;52.220;20.978;2024-01-15T00:34:45;1.70;99.90
17571;DHT22;8903;52.220;20.978;2024-01-15T00:37:11;1.60;99.90
17571;DHT22;8903;52.220;20.978;2024-01-15T00:39:37;1.60;99.90
17571;DHT22;8903;52.220;20.978;2024-01-15T00:42:03;1.70;99.90
17571;DHT22;8903;52.220;20.978;2024-01-15T00:44:29;1.70;99.90
17571;DHT22;8903;52.220;20.978;2024-01-15T00:46:54;1.70;99.90
17571;DHT22;8903;52.220;20.978;2024-01-15T00:49:20;1.70;99.90
17571;DHT22;8903;52.220;20.978;2024-01-15T00:51:46;1.70;99.90
17571;DHT22;8903;52.220;20.978;2024-01-15T00:54:11;1.70;99.90
17571;DHT22;8903;52.220;20.978;2024-01-15T00:56:37;1.60;99.90
17571;DHT22;8903;52.220;20.978;2024-01-15T00:59:03;1.60;99.90
17571;DHT22;8903;52.220;20.978;2024-01-15T01:01:28;1.60;99.90
17571;DHT22;8903;52.220;20.978;2024-01-15T01:03:55;1.50;99.90
17571;DHT22;8903;52.220;20.978;2024-01-15T01:06:21;1.50;99.90
17571;DHT22;8903;52.220;20.978;2024-01-15T01:08:46;1.50;99.90
17571;DHT22;8903;52.220;20.978;2024-01-15T01:11:16;1.40;99.90
17571;DHT22;8903;52.220;20.978;2024-01-15T01:13:42;1.40;99.90
17571;DHT22;8903;52.220;20.978;2024-01-15T01:16:07;1.40;99.90
17571;DHT22;8903;52.220;20.978;2024-01-15T01:18:34;1.40;99.90
17571;DHT22;8903;52.220;20.978;2024-01-15T01:20:59;1.40;99.90
17571;DHT22;8903;52.220;20.978;2024-01-15T01:23:26;1.30;99.90
17571;DHT22;8903;52.220;20.978;2024-01-15T01:25:51;1.30;99.90
17571;DHT22;8903;52.220;20.978;2024-01-15T01:28:17;1.30;99.90
17571;DHT22;8903;52.220;20.978;2024-01-15T01:30:43;1.30;99.90
17571;DHT22;8903;52.220;20.978;2024-01-15T01:33:08;1.30;99.90
17571;DHT22;8903;52.220;20.978;2024-01-15T01:35:34;1.30;99.90
17571;DHT22;8903;52.220;20.978;2024-01-15T01:38:00;1.30;99.90
17571;DHT22;8903;52.220;20.978;2024-01-15T01:40:25;1.30;99.90
17571;DHT22;8903;52.220;20.978;2024-01-15T01:42:51;1.40;99.90
17571;DHT22;8903;52.220;20.978;2024-01-15T01:45:17;1.30;99.90
17571;DHT22;8903;52.220;20.978;2024-01-15T01:47:42;1.40;99.90
17571;DHT22;8903;52.220;20.978;2024-01-15T01:50:08;1.40;99.90
17571;DHT22;8903;52.220;20.978;2024-01-15T01:52:34;1.40;99.90
17571;DHT22;8903;52.220;20.978;2024-01-15T01:55:02;1.40;99.90
17571;DHT22;8903;52.220;20.978;2024-01-15T01:57:29;1.40;99.90
17571;DHT22;8903;52.220;20.978;2024-01-15T01:59:56;1.40;99.90
17571;DHT22;8903;52.220;20.978;2024-01-15T02:02:22;1.40;99.90
17571;DHT22;8903;52.220;20.978;2024-01-15T02:04:49;1.40;99.90
17571;DHT22;8903;52.220;20.978;2024-01-15T02:07:15;1.40;99.90
17571;DHT22;8903;52.220;20.978;2024-01-15T02:09:44;1.40;99.90
17571;DHT22;8903;52.220;20.978;2024-01-15T02:12:09;1.40;99.90
17571;DHT22;8903;52.220;20.978;2024-01-15T02:14:35;1.50;99.90
17571;DHT22;8903;52.220;20.978;2024-01-15T02:17:01;1.50;99.90
17571;DHT22;8903;52.220;20.978;2024-01-15T02:19:27;1.50;99.90
17571;DHT22;8903;52.220;20.978;2024-01-15T02:21:52;1.50;99.90
17571;DHT22;8903;52.220;20.978;2024-01-15T02:24:18;1.50;99.90
17571;DHT22;8903;52.220;20.978;2024-01-15T02:26:44;1.50;99.90
17571;DHT22;8903;52.220;20.978;2024-01-15T02:29:10;1.50;99.90
17571;DHT22;8903;52.220;20.978;2024-01-15T02:31:37;1.50;99.90
17571;DHT22;8903;52.220;20.978;2024-01-15T02:34:02;1.50;99.90
17571;DHT22;8903;52.220;20.978;2024-01-15T02:36:28;1.50;99.90
17571;DHT22;8903;52.220;20.978;2024-01-15T02:38:54;1.50;99.90
17571;DHT22;8903;52.220;20.978;2024-01-15T02:41:19;1.60;99.90
17571;DHT22;8903;52.220;20.978;2024-01-15T02:43:45;1.50;99.90
17571;DHT22;8903;52.220;20.978;2024-01-15T02:46:11;1.60;99.90
17571;DHT22;8903;52.220;20.978;2024-01-15T02:48:36;1.50;99.90
17571;DHT22;8903;52.220;20.978;2024-01-15T02:51:02;1.50;99.90
17571;DHT22;8903;52.220;20.978;2024-01-15T02:53:28;1.50;99.90
17571;DHT22;8903;52.220;20.978;2024-01-15T02:55:54;1.50;99.90
17571;DHT22;8903;52.220;20.978;2024-01-15T02:58:20;1.50;99.90
17571;DHT22;8903;52.220;20.978;2024-01-15T03:00:46;1.50;99.90
17571;DHT22;8903;52.220;20.978;2024-01-15T03:03:12;1.50;99.90
17571;DHT22;8903;52.220;20.978;2024-01-15T03:05:44;1.50;99.90
17571;DHT22;8903;52.220;20.978;2024-01-15T03:08:10;1.50;99.90
17571;DHT22;8903;52.220;20.978;2024-01-15T03:10:35;1.50;99.90
17571;DHT22;8903;52.220;20.978;2024-01-15T03:13:01;1.50;99.90
17571;DHT22;8903;52.220;20.978;2024-01-15T03:15:27;1.50;99.90
17571;DHT22;8903;52.220;20.978;2024-01-15T03:17:53;1.50;99.90
17571;DHT22;8903;52.220;20.978;2024-01-15T03:20:18;1.50;99.90
17571;DHT22;8903;52.220;20.978;2024-01-15T03:22:44;1.40;99.90
17571;DHT22;8903;52.220;20.978;2024-01-15T03:25:10;1.40;99.90
17571;DHT22;8903;52.220;20.978;2024-01-15T03:27:35;1.30;99.90
17571;DHT22;8903;52.220;20.978;2024-01-15T03:30:01;1.30;99.90
17571;DHT22;8903;52.220;20.978;2024-01-15T03:32:28;1.20;99.90
17571;DHT22;8903;52.220;20.978;2024-01-15T03:34:53;1.20;99.90
17571;DHT22;8903;52.220;20.978;2024-01-15T03:37:19;1.20;99.90
17571;DHT22;8903;52.220;20.978;2024-01-15T03:39:45;1.10;99.90
17571;DHT22;8903;52.220;20.978;2024-01-15T03:42:10;1.10;99.90
17571;DHT22;8903;52.220;20.978;2024-01-15T03:44:36;1.10;99.90
17571;DHT22;8903;52.220;20.978;2024-01-15T03:47:02;1.10;99.90
17571;DHT22;8903;52.220;20.978;2024-01-15T03:49:27;1.10;99.90
17571;DHT22;8903;52.220;20.978;2024-01-15T03:51:53;1.10;99.90
17571;DHT22;8903;52.220;20.978;2024-01-15T03:54:19;1.20;99.90
17571;DHT22;8903;52.220;20.978;2024-01-15T03:56:44;1.20;99.90
17571;DHT22;8903;52.220;20.978;2024-01-15T03:59:10;1.20;99.90
17571;DHT22;8903;52.220;20.978;2024-01-15T04:01:36;1.20;99.90
17571;DHT22;8903;52.220;20.978;2024-01-15T04:04:01;1.20;99.90
17571;DHT22;8903;52.220;20.978;2024-01-15T04:06:27;1.20;99.90
17571;DHT22;8903;52.220;20.978;2024-01-15T04:08:53;1.20;99.90
17571;DHT22;8903;52.220;20.978;2024-01-15T04:11:18;1.20;99.90
17571;DHT22;8903;52.220;20.978;2024-01-15T04:13:44;1.20;99.90
17571;DHT22;8903;52.220;20.978;2024-01-15T04:16:10;1.20;99.90
17571;DHT22;8903;52.220;20.978;2024-01-15T04:18:36;1.20;99.90
17571;DHT22;8903;52.220;20.978;2024-01-15T04:21:04;1.20;99.90
17571;DHT22;8903;52.220;20.978;2024-01-15T04:23:30;1.20;99.90
17571;DHT22;8903;52.220;20.978;2024-01-15T04:25:56;1.20;99.90
17571;DHT22;8903;52.220;20.978;2024-01-15T04:28:22;1.30;99.90
17571;DHT22;8903;52.220;20.978;2024-01-15T04:30:48;1.30;99.90
17571;DHT22;8903;52.220;20.978;2024-01-15T04:33:13;1.30;99.90
17571;DHT22;8903;52.220;20.978;2024-01-15T04:35:40;1.30;99.90
17571;DHT22;8903;52.220;20.978;2024-01-15T04:38:05;1.30;99.90
17571;DHT22;8903;52.220;20.978;2024-01-15T04:40:31;1.30;99.90
17571;DHT22;8903;52.220;20.978;2024-01-15T04:42:57;1.30;99.90
17571;DHT22;8903;52.220;20.978;2024-01-15T04:45:22;1.30;99.90
17571;DHT22;8903;52.220;20.978;2024-01-15T04:47:54;1.30;99.90
17571;DHT22;8903;52.220;20.978;2024-01-15T04:50:20;1.30;99.90
17571;DHT22;8903;52.220;20.978;2024-01-15T04:52:46;1.40;99.90
17571;DHT22;8903;52.220;20.978;2024-01-15T04:55:11;1.40;99.90
17571;DHT22;8903;52.220;20.978;2024-01-15T04:57:37;1.40;99.90
17571;DHT22;8903;52.220;20.978;2024-01-15T05:00:03;1.40;99.90
17571;DHT22;8903;52.220;20.978;2024-01-15T05:02:30;1.40;99.90
17571;DHT22;8903;52.220;20.978;2024-01-15T05:04:57;1.40;99.90
17571;DHT22;8903;52.220;20.978;2024-01-15T05:07:22;1.40;99.90
17571;DHT22;8903;52.220;20.978;2024-01-15T05:09:48;1.40;99.90
17571;DHT22;8903;52.220;20.978;2024-01-15T05:12:14;1.40;99.90
17571;DHT22;8903;52.220;20.978;2024-01-15T05:14:39;1.40;99.90
17571;DHT22;8903;52.220;20.978;2024-01-15T05:17:05;1.40;99.90
17571;DHT22;8903;52.220;20.978;2024-01-15T05:19:31;1.40;99.90
17571;DHT22;8903;52.220;20.978;2024-01-15T05:21:56;1.40;99.90
17571;DHT22;8903;52.220;20.978;2024-01-15T05:24:22;1.40;99.90
17571;DHT22;8903;52.220;20.978;2024-01-15T05:26:48;1.50;99.90
17571;DHT22;8903;52.220;20.978;2024-01-15T05:29:14;1.40;99.90
17571;DHT22;8903;52.220;20.978;2024-01-15T05:31:39;1.40;99.90
17571;DHT22;8903;52.220;20.978;2024-01-15T05:34:05;1.40;99.90
17571;DHT22;8903;52.220;20.978;2024-01-15T05:36:31;1.40;99.90
17571;DHT22;8903;52.220;20.978;2024-01-15T05:38:56;1.50;99.90
17571;DHT22;8903;52.220;20.978;2024-01-15T05:41:22;1.50;99.90
17571;DHT22;8903;52.220;20.978;2024-01-15T05:43:47;1.50;99.90
17571;DHT22;8903;52.220;20.978;2024-01-15T05:46:13;1.50;99.90
17571;DHT22;8903;52.220;20.978;2024-01-15T05:48:41;1.50;99.90
17571;DHT22;8903;52.220;20.978;2024-01-15T05:51:06;1.50;99.90
17571;DHT22;8903;52.220;20.978;2024-01-15T05:53:32;1.50;99.90
17571;DHT22;8903;52.220;20.978;2024-01-15T05:55:57;1.50;99.90
17571;DHT22;8903;52.220;20.978;2024-01-15T05:58:23;1.50;99.90
17571;DHT22;8903;52.220;20.978;2024-01-15T06:00:49;1.50;99.90
17571;DHT22;8903;52.220;20.978;2024-01-15T06:03:15;1.50;99.90
17571;DHT22;8903;52.220;20.978;2024-01-15T06:05:41;1.50;99.90
17571;DHT22;8903;52.220;20.978;2024-01-15T06:08:08;1.40;99.90
17571;DHT22;8903;52.220;20.978;2024-01-15T06:10:33;1.40;99.90
17571;DHT22;8903;52.220;20.978;2024-01-15T06:12:59;1.40;99.90
17571;DHT22;8903;52.220;20.978;2024-01-15T06:15:25;1.40;99.90
17571;DHT22;8903;52.220;20.978;2024-01-15T06:17:51;1.40;99.90
17571;DHT22;8903;52.220;20.978;2024-01-15T06:20:16;1.40;99.90
17571;DHT22;8903;52.220;20.978;2024-01-15T06:22:42;1.40;99.90
17571;DHT22;8903;52.220;20.978;2024-01-15T06:25:08;1.40;99.90
17571;DHT22;8903;52.220;20.978;2024-01-15T06:27:35;1.40;99.90
17571;DHT22;8903;52.220;20.978;2024-01-15T06:30:01;1.40;99.90
17571;DHT22;8903;52.220;20.978;2024-01-15T06:32:27;1.40;99.90
17571;DHT22;8903;52.220;20.978;2024-01-15T06:34:53;1.40;99.90
17571;DHT22;8903;52.220;20.978;2024-01-15T06:37:18;1.30;99.90
17571;DHT22;8903;52.220;20.978;2024-01-15T06:39:45;1.30;99.90
17571;DHT22;8903;52.220;20.978;2024-01-15T06:42:11;1.30;99.90
17571;DHT22;8903;52.220;20.978;2024-01-15T06:44:37;1.30;99.90
17571;DHT22;8903;52.220;20.978;2024-01-15T06:47:02;1.30;99.90
17571;DHT22;8903;52.220;20.978;2024-01-15T06:49:29;1.30;99.90
17571;DHT22;8903;52.220;20.978;2024-01-15T06:51:55;1.40;99.90
17571;DHT22;8903;52.220;20.978;2024-01-15T06:54:21;1.40;99.90
17571;DHT22;8903;52.220;20.978;2024-01-15T06:56:47;1.40;99.90
17571;DHT22;8903;52.220;20.978;2024-01-15T06:59:12;1.40;99.90
17571;DHT22;8903;52.220;20.978;2024-01-15T07:01:38;1.50;99.90
17571;DHT22;8903;52.220;20.978;2024-01-15T07:04:04;1.50;99.90
17571;DHT22;8903;52.220;20.978;2024-01-15T07:06:29;1.50;99.90
17571;DHT22;8903;52.220;20.978;2024-01-15T07:08:56;1.50;99.90
17571;DHT22;8903;52.220;20.978;2024-01-15T07:11:22;1.40;99.90
17571;DHT22;8903;52.220;20.978;2024-01-15T07:13:48;1.40;99.90
17571;DHT22;8903;52.220;20.978;2024-01-15T07:16:13;1.40;99.90
17571;DHT22;8903;52.220;20.978;2024-01-15T07:18:39;1.40;99.90
17571;DHT22;8903;52.220;20.978;2024-01-15T07:21:05;1.40;99.90
17571;DHT22;8903;52.220;20.978;2024-01-15T07:23:31;1.40;99.90
17571;DHT22;8903;52.220;20.978;2024-01-15T07:25:57;1.40;99.90
17571;DHT22;8903;52.220;20.978;2024-01-15T07:28:23;1.30;99.90
17571;DHT22;8903;52.220;20.978;2024-01-15T07:30:49;1.30;99.90
17571;DHT22;8903;52.220;20.978;2024-01-15T07:33:14;1.20;99.90
17571;DHT22;8903;52.220;20.978;2024-01-15T07:35:40;1.20;99.90
17571;DHT22;8903;52.220;20.978;2024-01-15T07:38:06;1.20;99.90
17571;DHT22;8903;52.220;20.978;2024-01-15T07:40:32;1.20;99.90
17571;DHT22;8903;52.220;20.978;2024-01-15T07:42:57;1.20;99.90
17571;DHT22;8903;52.220;20.978;2024-01-15T07:45:23;1.10;99.90
17571;DHT22;8903;52.220;20.978;2024-01-15T07:47:52;1.10;99.90
17571;DHT22;8903;52.220;20.978;2024-01-15T07:50:18;1.20;99.90
17571;DHT22;8903;52.220;20.978;2024-01-15T07:52:44;1.10;99.90
17571;DHT22;8903;52.220;20.978;2024-01-15T07:55:10;1.20;99.90
17571;DHT22;8903;52.220;20.978;2024-01-15T07:57:36;1.20;99.90
17571;DHT22;8903;52.220;20.978;2024-01-15T08:00:02;1.20;99.90
17571;DHT22;8903;52.220;20.978;2024-01-15T08:02:31;1.20;99.90
17571;DHT22;8903;52.220;20.978;2024-01-15T08:04:59;1.20;99.90
17571;DHT22;8903;52.220;20.978;2024-01-15T08:07:25;1.30;99.90
17571;DHT22;8903;52.220;20.978;2024-01-15T08:09:52;1.20;99.90
17571;DHT22;8903;52.220;20.978;2024-01-15T08:12:18;1.20;99.90
17571;DHT22;8903;52.220;20.978;2024-01-15T08:14:44;1.20;99.90
17571;DHT22;8903;52.220;20.978;2024-01-15T08:17:10;1.20;99.90
17571;DHT22;8903;52.220;20.978;2024-01-15T08:19:36;1.20;99.90
17571;DHT22;8903;52.220;20.978;2024-01-15T08:22:01;1.20;99.90
17571;DHT22;8903;52.220;20.978;2024-01-15T08:24:27;1.20;99.90
17571;DHT22;8903;52.220;20.978;2024-01-15T08:26:54;1.20;99.90
17571;DHT22;8903;52.220;20.978;2024-01-15T08:29:19;1.20;99.90
17571;DHT22;8903;52.220;20.978;2024-01-15T08:31:46;1.30;99.90
17571;DHT22;8903;52.220;20.978;2024-01-15T08:34:12;1.30;99.90
17571;DHT22;8903;52.220;20.978;2024-01-15T08:36:38;1.40;99.90
17571;DHT22;8903;52.220;20.978;2024-01-15T08:39:03;1.50;99.90
17571;DHT22;8903;52.220;20.978;2024-01-15T08:41:32;1.50;99.90
17571;DHT22;8903;52.220;20.978;2024-01-15T08:43:58;1.60;99.90
17571;DHT22;8903;52.220;20.978;2024-01-15T08:46:23;1.60;99.90
17571;DHT22;8903;52.220;20.978;2024-01-15T08:48:50;1.60;99.90
17571;DHT22;8903;52.220;20.978;2024-01-15T08:51:15;1.60;99.90
17571;DHT22;8903;52.220;20.978;2024-01-15T08:53:41;1.60;99.90
17571;DHT22;8903;52.220;20.978;2024-01-15T08:56:07;1.50;99.90
17571;DHT22;8903;52.220;20.978;2024-01-15T08:58:34;1.50;99.90
17571;DHT22;8903;52.220;20.978;2024-01-15T09:01:00;1.50;99.90
17571;DHT22;8903;52.220;20.978;2024-01-15T09:03:25;1.50;99.90
17571;DHT22;8903;52.220;20.978;2024-01-15T09:05:51;1.50;99.90
17571;DHT22;8903;52.220;20.978;2024-01-15T09:08:17;1.50;99.90
17571;DHT22;8903;52.220;20.978;2024-01-15T09:10:43;1.50;99.90
17571;DHT22;8903;52.220;20.978;2024-01-15T09:13:08;1.50;99.90
17571;DHT22;8903;52.220;20.978;2024-01-15T09:15:34;1.60;99.90
17571;DHT22;8903;52.220;20.978;2024-01-15T09:18:00;1.60;99.90
17571;DHT22;8903;52.220;20.978;2024-01-15T09:20:27;1.70;99.90
17571;DHT22;8903;52.220;20.978;2024-01-15T09:22:53;1.70;99.90
17571;DHT22;8903;52.220;20.978;2024-01-15T09:25:19;1.70;99.90
17571;DHT22;8903;52.220;20.978;2024-01-15T09:27:45;1.70;99.90
17571;DHT22;8903;52.220;20.978;2024-01-15T09:30:11;1.80;99.90
17571;DHT22;8903;52.220;20.978;2024-01-15T09:32:37;1.80;99.90
17571;DHT22;8903;52.220;20.978;2024-01-15T09:35:03;1.80;99.90
17571;DHT22;8903;52.220;20.978;2024-01-15T09:37:29;1.80;99.90
17571;DHT22;8903;52.220;20.978;2024-01-15T09:39:54;1.80;99.90
17571;DHT22;8903;52.220;20.978;2024-01-15T09:42:22;1.80;99.90
17571;DHT22;8903;52.220;20.978;2024-01-15T09:44:49;1.90;99.90
17571;DHT22;8903;52.220;20.978;2024-01-15T09:47:15;1.90;99.90
17571;DHT22;8903;52.220;20.978;2024-01-15T09:49:42;1.90;99.90
17571;DHT22;8903;52.220;20.978;2024-01-15T09:52:08;1.90;99.90
17571;DHT22;8903;52.220;20.978;2024-01-15T09:54:35;1.90;99.90
17571;DHT22;8903;52.220;20.978;2024-01-15T09:57:01;2.00;99.90
17571;DHT22;8903;52.220;20.978;2024-01-15T09:59:27;2.00;99.90
17571;DHT22;8903;52.220;20.978;2024-01-15T10:01:53;2.00;99.90
17571;DHT22;8903;52.220;20.978;2024-01-15T10:04:21;2.00;99.90
17571;DHT22;8903;52.220;20.978;2024-01-15T10:06:47;2.00;99.90
17571;DHT22;8903;52.220;20.978;2024-01-15T10:09:16;2.00;99.90
17571;DHT22;8903;52.220;20.978;2024-01-15T10:11:43;2.10;99.90
17571;DHT22;8903;52.220;20.978;2024-01-15T10:14:10;2.10;99.90
17571;DHT22;8903;52.220;20.978;2024-01-15T10:16:41;2.10;99.90
17571;DHT22;8903;52.220;20.978;2024-01-15T10:19:10;2.20;99.90
17571;DHT22;8903;52.220;20.978;2024-01-15T10:21:38;2.20;99.90
17571;DHT22;8903;52.220;20.978;2024-01-15T10:24:04;2.20;99.90
17571;DHT22;8903;52.220;20.978;2024-01-15T10:26:32;2.20;99.90
17571;DHT22;8903;52.220;20.978;2024-01-15T10:28:58;2.20;99.90
17571;DHT22;8903;52.220;20.978;2024-01-15T10:31:25;2.20;99.90
17571;DHT22;8903;52.220;20.978;2024-01-15T10:33:51;2.20;99.90
17571;DHT22;8903;52.220;20.978;2024-01-15T10:36:18;2.10;99.90
17571;DHT22;8903;52.220;20.978;2024-01-15T10:38:44;2.10;99.90
17571;DHT22;8903;52.220;20.978;2024-01-15T10:41:10;2.10;99.90
17571;DHT22;8903;52.220;20.978;2024-01-15T10:43:36;2.10;99.90
17571;DHT22;8903;52.220;20.978;2024-01-15T10:46:03;2.20;99.90
17571;DHT22;8903;52.220;20.978;2024-01-15T10:48:29;2.20;99.90
17571;DHT22;8903;52.220;20.978;2024-01-15T10:50:57;2.20;99.90
17571;DHT22;8903;52.220;20.978;2024-01-15T10:53:24;2.30;99.90
17571;DHT22;8903;52.220;20.978;2024-01-15T10:55:53;2.30;99.90
17571;DHT22;8903;52.220;20.978;2024-01-15T10:58:20;2.30;99.90
17571;DHT22;8903;52.220;20.978;2024-01-15T11:00:46;2.30;99.90
17571;DHT22;8903;52.220;20.978;2024-01-15T11:03:12;2.30;99.90
17571;DHT22;8903;52.220;20.978;2024-01-15T11:05:40;2.30;99.90
17571;DHT22;8903;52.220;20.978;2024-01-15T11:08:07;2.30;99.90
17571;DHT22;8903;52.220;20.978;2024-01-15T11:10:46;2.30;99.90
17571;DHT22;8903;52.220;20.978;2024-01-15T11:16:07;2.30;99.90
17571;DHT22;8903;52.220;20.978;2024-01-15T11:21:24;2.20;99.90
17571;DHT22;8903;52.220;20.978;2024-01-15T11:24:00;2.20;99.90
17571;DHT22;8903;52.220;20.978;2024-01-15T11:26:52;2.20;99.90
17571;DHT22;8903;52.220;20.978;2024-01-15T11:29:46;2.30;99.90
17571;DHT22;8903;52.220;20.978;2024-01-15T11:32:17;2.30;99.90
17571;DHT22;8903;52.220;20.978;2024-01-15T11:34:57;2.30;99.90
17571;DHT22;8903;52.220;20.978;2024-01-15T11:37:25;2.30;99.90
17571;DHT22;8903;52.220;20.978;2024-01-15T11:39:56;2.30;99.90
17571;DHT22;8903;52.220;20.978;2024-01-15T11:42:22;2.40;99.90
17571;DHT22;8903;52.220;20.978;2024-01-15T11:44:49;2.30;99.90
17571;DHT22;8903;52.220;20.978;2024-01-15T11:47:14;2.30;99.90
17571;DHT22;8903;52.220;20.978;2024-01-15T11:52:11;2.30;99.90
17571;DHT22;8903;52.220;20.978;2024-01-15T11:54:38;2.20;99.90
17571;DHT22;8903;52.220;20.978;2024-01-15T11:57:11;2.20;99.90
17571;DHT22;8903;52.220;20.978;2024-01-15T11:59:42;2.10;99.90
17571;DHT22;8903;52.220;20.978;2024-01-15T12:02:08;2.20;99.90
17571;DHT22;8903;52.220;20.978;2024-01-15T12:04:37;2.10;99.90
17571;DHT22;8903;52.220;20.978;2024-01-15T12:07:04;2.10;99.90
17571;DHT22;8903;52.220;20.978;2024-01-15T12:09:30;2.10;99.90
17571;DHT22;8903;52.220;20.978;2024-01-15T12:12:03;2.10;99.90
17571;DHT22;8903;52.220;20.978;2024-01-15T12:14:33;2.00;99.90
17571;DHT22;8903;52.220;20.978;2024-01-15T12:17:00;2.00;99.90
17571;DHT22;8903;52.220;20.978;2024-01-15T12:19:26;2.00;99.90
17571;DHT22;8903;52.220;20.978;2024-01-15T12:21:52;2.00;99.90
17571;DHT22;8903;52.220;20.978;2024-01-15T12:24:17;2.00;99.90
17571;DHT22;8903;52.220;20.978;2024-01-15T12:26:44;2.00;99.90
17571;DHT22;8903;52.220;20.978;2024-01-15T12:29:11;2.00;99.90
17571;DHT22;8903;52.220;20.978;2024-01-15T12:31:37;1.90;99.90
17571;DHT22;8903;52.220;20.978;2024-01-15T12:34:03;1.90;99.90
17571;DHT22;8903;52.220;20.978;2024-01-15T12:36:31;1.90;99.90
17571;DHT22;8903;52.220;20.978;2024-01-15T12:39:00;1.80;99.90
17571;DHT22;8903;52.220;20.978;2024-01-15T12:41:26;1.70;99.90
17571;DHT22;8903;52.220;20.978;2024-01-15T12:43:52;1.60;99.90
17571;DHT22;8903;52.220;20.978;2024-01-15T12:46:17;1.40;99.90
17571;DHT22;8903;52.220;20.978;2024-01-15T12:48:45;1.30;99.90
17571;DHT22;8903;52.220;20.978;2024-01-15T12:51:10;1.30;99.90
17571;DHT22;8903;52.220;20.978;2024-01-15T12:53:36;1.20;99.90
17571;DHT22;8903;52.220;20.978;2024-01-15T12:56:02;1.30;99.90
17571;DHT22;8903;52.220;20.978;2024-01-15T12:58:28;1.40;99.90
17571;DHT22;8903;52.220;20.978;2024-01-15T13:00:54;1.40;99.90
17571;DHT22;8903;52.220;20.978;2024-01-15T13:03:19;1.50;99.90
17571;DHT22;8903;52.220;20.978;2024-01-15T13:05:45;1.50;99.90
17571;DHT22;8903;52.220;20.978;2024-01-15T13:08:11;1.60;99.90
17571;DHT22;8903;52.220;20.978;2024-01-15T13:10:37;1.60;99.90
17571;DHT22;8903;52.220;20.978;2024-01-15T13:13:03;1.50;99.90
17571;DHT22;8903;52.220;20.978;2024-01-15T13:15:29;1.30;99.90
17571;DHT22;8903;52.220;20.978;2024-01-15T13:17:54;1.20;99.90
17571;DHT22;8903;52.220;20.978;2024-01-15T13:20:21;1.10;99.90
17571;DHT22;8903;52.220;20.978;2024-01-15T13:22:47;1.00;99.90
17571;DHT22;8903;52.220;20.978;2024-01-15T13:25:13;1.00;99.90
17571;DHT22;8903;52.220;20.978;2024-01-15T13:27:39;1.00;99.90
17571;DHT22;8903;52.220;20.978;2024-01-15T13:30:05;1.00;99.90
17571;DHT22;8903;52.220;20.978;2024-01-15T13:32:32;0.90;99.90
17571;DHT22;8903;52.220;20.978;2024-01-15T13:35:00;0.90;99.90
17571;DHT22;8903;52.220;20.978;2024-01-15T13:37:26;1.00;99.90
17571;DHT22;8903;52.220;20.978;2024-01-15T13:39:52;1.00;99.90
17571;DHT22;8903;52.220;20.978;2024-01-15T13:42:18;1.00;99.90
17571;DHT22;8903;52.220;20.978;2024-01-15T13:44:47;1.00;99.90
17571;DHT22;8903;52.220;20.978;2024-01-15T13:47:13;1.00;99.90
17571;DHT22;8903;52.220;20.978;2024-01-15T13:49:39;1.10;99.90
17571;DHT22;8903;52.220;20.978;2024-01-15T13:52:04;1.10;99.90
17571;DHT22;8903;52.220;20.978;2024-01-15T13:54:30;1.10;99.90
17571;DHT22;8903;52.220;20.978;2024-01-15T13:56:56;1.20;99.90
17571;DHT22;8903;52.220;20.978;2024-01-15T13:59:22;1.20;99.90
17571;DHT22;8903;52.220;20.978;2024-01-15T14:01:48;1.20;99.90
17571;DHT22;8903;52.220;20.978;2024-01-15T14:04:14;1.20;99.90
17571;DHT22;8903;52.220;20.978;2024-01-15T14:06:40;1.20;99.90
17571;DHT22;8903;52.220;20.978;2024-01-15T14:09:06;1.20;99.90
17571;DHT22;8903;52.220;20.978;2024-01-15T14:11:36;1.20;99.90
17571;DHT22;8903;52.220;20.978;2024-01-15T14:14:02;1.30;99.90
17571;DHT22;8903;52.220;20.978;2024-01-15T14:16:28;1.30;99.90
17571;DHT22;8903;52.220;20.978;2024-01-15T14:18:53;1.30;99.90
17571;DHT22;8903;52.220;20.978;2024-01-15T14:21:19;1.30;99.90
17571;DHT22;8903;52.220;20.978;2024-01-15T14:23:45;1.30;99.90
17571;DHT22;8903;52.220;20.978;2024-01-15T14:26:10;1.30;99.90
17571;DHT22;8903;52.220;20.978;2024-01-15T14:28:36;1.30;99.90
17571;DHT22;8903;52.220;20.978;2024-01-15T14:31:02;1.30;99.90
17571;DHT22;8903;52.220;20.978;2024-01-15T14:33:30;1.30;99.90
17571;DHT22;8903;52.220;20.978;2024-01-15T14:35:57;1.30;99.90
17571;DHT22;8903;52.220;20.978;2024-01-15T14:38:23;1.30;99.90
17571;DHT22;8903;52.220;20.978;2024-01-15T14:40:49;1.20;99.90
17571;DHT22;8903;52.220;20.978;2024-01-15T14:43:15;1.20;99.90
17571;DHT22;8903;52.220;20.978;2024-01-15T14:45:40;1.20;99.90
17571;DHT22;8903;52.220;20.978;2024-01-15T14:48:06;1.20;99.90
17571;DHT22;8903;52.220;20.978;2024-01-15T14:50:32;1.20;99.90
17571;DHT22;8903;52.220;20.978;2024-01-15T14:52:57;1.20;99.90
17571;DHT22;8903;52.220;20.978;2024-01-15T14:55:23;1.30;99.90
17571;DHT22;8903;52.220;20.978;2024-01-15T14:57:49;1.30;99.90
17571;DHT22;8903;52.220;20.978;2024-01-15T15:00:16;1.20;99.90
17571;DHT22;8903;52.220;20.978;2024-01-15T15:02:42;1.20;99.90
17571;DHT22;8903;52.220;20.978;2024-01-15T15:05:09;1.20;99.90
17571;DHT22;8903;52.220;20.978;2024-01-15T15:07:35;1.20;99.90
17571;DHT22;8903;52.220;20.978;2024-01-15T15:10:02;1.20;99.90
17571;DHT22;8903;52.220;20.978;2024-01-15T15:12:30;1.20;99.90
17571;DHT22;8903;52.220;20.978;2024-01-15T15:14:56;1.20;99.90
17571;DHT22;8903;52.220;20.978;2024-01-15T15:17:22;1.20;99.90
17571;DHT22;8903;52.220;20.978;2024-01-15T15:19:47;1.30;99.90
17571;DHT22;8903;52.220;20.978;2024-01-15T15:22:14;1.30;99.90
17571;DHT22;8903;52.220;20.978;2024-01-15T15:24:39;1.30;99.90
17571;DHT22;8903;52.220;20.978;2024-01-15T15:27:05;1.30;99.90
17571;DHT22;8903;52.220;20.978;2024-01-15T15:29:32;1.30;99.90
17571;DHT22;8903;52.220;20.978;2024-01-15T15:31:58;1.30;99.90
17571;DHT22;8903;52.220;20.978;2024-01-15T15:34:24;1.30;99.90
17571;DHT22;8903;52.220;20.978;2024-01-15T15:36:49;1.30;99.90
17571;DHT22;8903;52.220;20.978;2024-01-15T15:39:15;1.30;99.90
17571;DHT22;8903;52.220;20.978;2024-01-15T15:41:42;1.30;99.90
17571;DHT22;8903;52.220;20.978;2024-01-15T15:44:08;1.30;99.90
17571;DHT22;8903;52.220;20.978;2024-01-15T15:46:35;1.30;99.90